sensor_id;sensor_type;location;lat;lon;timestamp;P1;durP1;ratioP1;P2;durP2;ratioP2
52878;SDS011;38747;53.140;6.498;2023-03-03T00:00:06;53.35;;;10.77;;
52878;SDS011;38747;53.140;6.498;2023-03-03T00:02:32;40.67;;;10.57;;
52878;SDS011;38747;53.140;6.498;2023-03-03T00:04:58;53.78;;;10.52;;
52878;SDS011;38747;53.140;6.498;2023-03-03T00:07:23;41.23;;;9.10;;
52878;SDS011;38747;53.140;6.498;2023-03-03T00:09:49;58.03;;;11.32;;
52878;SDS011;38747;53.140;6.498;2023-03-03T00:12:20;58.27;;;10.73;;
52878;SDS011;38747;53.140;6.498;2023-03-03T00:14:47;58.28;;;11.00;;
52878;SDS011;38747;53.140;6.498;2023-03-03T00:17:31;44.08;;;9.57;;
52878;SDS011;38747;53.140;6.498;2023-03-03T00:19:58;74.30;;;10.23;;
52878;SDS011;38747;53.140;6.498;2023-03-03T00:22:30;60.65;;;10.13;;
52878;SDS011;38747;53.140;6.498;2023-03-03T00:25:21;76.95;;;9.32;;
52878;SDS011;38747;53.140;6.498;2023-03-03T00:27:52;61.57;;;10.60;;
52878;SDS011;38747;53.140;6.498;2023-03-03T00:30:25;48.35;;;9.50;;
52878;SDS011;38747;53.140;6.498;2023-03-03T00:32:52;37.08;;;9.95;;
52878;SDS011;38747;53.140;6.498;2023-03-03T00:35:27;59.38;;;10.38;;
52878;SDS011;38747;53.140;6.498;2023-03-03T00:38:01;62.60;;;10.50;;
52878;SDS011;38747;53.140;6.498;2023-03-03T00:40:37;95.85;;;11.93;;
52878;SDS011;38747;53.140;6.498;2023-03-03T00:43:17;143.43;;;12.07;;
52878;SDS011;38747;53.140;6.498;2023-03-03T00:45:51;92.38;;;11.23;;
52878;SDS011;38747;53.140;6.498;2023-03-03T00:48:22;108.85;;;9.50;;
52878;SDS011;38747;53.140;6.498;2023-03-03T00:50:58;74.20;;;10.43;;
52878;SDS011;38747;53.140;6.498;2023-03-03T00:53:26;109.25;;;10.88;;
52878;SDS011;38747;53.140;6.498;2023-03-03T00:55:53;150.57;;;10.88;;
52878;SDS011;38747;53.140;6.498;2023-03-03T00:58:20;111.68;;;8.60;;
52878;SDS011;38747;53.140;6.498;2023-03-03T01:00:47;147.68;;;10.05;;
52878;SDS011;38747;53.140;6.498;2023-03-03T01:03:14;143.23;;;10.17;;
52878;SDS011;38747;53.140;6.498;2023-03-03T01:05:42;117.38;;;9.05;;
52878;SDS011;38747;53.140;6.498;2023-03-03T01:08:08;87.43;;;10.05;;
52878;SDS011;38747;53.140;6.498;2023-03-03T01:10:35;94.70;;;10.03;;
52878;SDS011;38747;53.140;6.498;2023-03-03T01:13:08;128.95;;;11.25;;
52878;SDS011;38747;53.140;6.498;2023-03-03T01:15:35;110.47;;;9.70;;
52878;SDS011;38747;53.140;6.498;2023-03-03T01:18:01;120.03;;;9.68;;
52878;SDS011;38747;53.140;6.498;2023-03-03T01:20:27;124.77;;;12.13;;
52878;SDS011;38747;53.140;6.498;2023-03-03T01:22:53;220.38;;;10.45;;
52878;SDS011;38747;53.140;6.498;2023-03-03T01:25:18;167.10;;;9.33;;
52878;SDS011;38747;53.140;6.498;2023-03-03T01:27:44;155.97;;;10.80;;
52878;SDS011;38747;53.140;6.498;2023-03-03T01:30:09;132.68;;;10.40;;
52878;SDS011;38747;53.140;6.498;2023-03-03T01:32:35;107.33;;;10.00;;
52878;SDS011;38747;53.140;6.498;2023-03-03T01:35:01;126.90;;;9.05;;
52878;SDS011;38747;53.140;6.498;2023-03-03T01:37:27;127.37;;;9.13;;
52878;SDS011;38747;53.140;6.498;2023-03-03T01:39:53;75.32;;;9.32;;
52878;SDS011;38747;53.140;6.498;2023-03-03T01:42:20;171.13;;;8.68;;
52878;SDS011;38747;53.140;6.498;2023-03-03T01:44:46;88.95;;;7.53;;
52878;SDS011;38747;53.140;6.498;2023-03-03T01:47:33;131.73;;;7.53;;
52878;SDS011;38747;53.140;6.498;2023-03-03T01:50:02;110.95;;;7.57;;
52878;SDS011;38747;53.140;6.498;2023-03-03T01:52:36;199.10;;;9.80;;
52878;SDS011;38747;53.140;6.498;2023-03-03T01:55:11;121.93;;;7.70;;
52878;SDS011;38747;53.140;6.498;2023-03-03T01:57:44;91.45;;;6.63;;
52878;SDS011;38747;53.140;6.498;2023-03-03T02:00:20;109.80;;;9.40;;
52878;SDS011;38747;53.140;6.498;2023-03-03T02:02:46;137.05;;;11.20;;
52878;SDS011;38747;53.140;6.498;2023-03-03T02:05:13;70.67;;;8.30;;
52878;SDS011;38747;53.140;6.498;2023-03-03T02:07:40;133.55;;;7.95;;
52878;SDS011;38747;53.140;6.498;2023-03-03T02:12:38;118.55;;;6.60;;
52878;SDS011;38747;53.140;6.498;2023-03-03T02:15:16;59.10;;;5.40;;
52878;SDS011;38747;53.140;6.498;2023-03-03T02:17:54;97.63;;;6.37;;
52878;SDS011;38747;53.140;6.498;2023-03-03T02:20:35;137.40;;;6.90;;
52878;SDS011;38747;53.140;6.498;2023-03-03T02:23:11;158.15;;;7.68;;
52878;SDS011;38747;53.140;6.498;2023-03-03T02:25:48;172.38;;;6.90;;
52878;SDS011;38747;53.140;6.498;2023-03-03T02:28:21;190.23;;;8.85;;
52878;SDS011;38747;53.140;6.498;2023-03-03T02:30:48;66.00;;;6.37;;
52878;SDS011;38747;53.140;6.498;2023-03-03T02:33:14;133.45;;;8.38;;
52878;SDS011;38747;53.140;6.498;2023-03-03T02:35:40;104.03;;;7.00;;
52878;SDS011;38747;53.140;6.498;2023-03-03T02:40:43;90.20;;;6.93;;
52878;SDS011;38747;53.140;6.498;2023-03-03T02:43:17;73.13;;;7.15;;
52878;SDS011;38747;53.140;6.498;2023-03-03T02:45:45;109.22;;;5.80;;
52878;SDS011;38747;53.140;6.498;2023-03-03T02:48:11;73.93;;;6.07;;
52878;SDS011;38747;53.140;6.498;2023-03-03T02:50:36;76.90;;;5.53;;
52878;SDS011;38747;53.140;6.498;2023-03-03T02:53:02;61.60;;;5.37;;
52878;SDS011;38747;53.140;6.498;2023-03-03T02:55:27;35.90;;;5.10;;
52878;SDS011;38747;53.140;6.498;2023-03-03T02:57:53;59.15;;;6.03;;
52878;SDS011;38747;53.140;6.498;2023-03-03T03:00:19;50.83;;;4.80;;
52878;SDS011;38747;53.140;6.498;2023-03-03T03:02:45;75.28;;;6.55;;
52878;SDS011;38747;53.140;6.498;2023-03-03T03:05:11;48.05;;;4.95;;
52878;SDS011;38747;53.140;6.498;2023-03-03T03:07:36;27.57;;;4.30;;
52878;SDS011;38747;53.140;6.498;2023-03-03T03:10:02;39.97;;;5.03;;
52878;SDS011;38747;53.140;6.498;2023-03-03T03:12:28;43.40;;;4.43;;
52878;SDS011;38747;53.140;6.498;2023-03-03T03:14:54;65.18;;;5.70;;
52878;SDS011;38747;53.140;6.498;2023-03-03T03:17:19;105.93;;;5.67;;
52878;SDS011;38747;53.140;6.498;2023-03-03T03:19:45;59.08;;;5.60;;
52878;SDS011;38747;53.140;6.498;2023-03-03T03:22:10;76.03;;;5.80;;
52878;SDS011;38747;53.140;6.498;2023-03-03T03:24:36;75.77;;;5.70;;
52878;SDS011;38747;53.140;6.498;2023-03-03T03:27:02;55.95;;;5.32;;
52878;SDS011;38747;53.140;6.498;2023-03-03T03:29:27;63.83;;;4.53;;
52878;SDS011;38747;53.140;6.498;2023-03-03T03:31:53;59.35;;;4.30;;
52878;SDS011;38747;53.140;6.498;2023-03-03T03:34:19;30.97;;;3.97;;
52878;SDS011;38747;53.140;6.498;2023-03-03T03:36:44;55.03;;;4.82;;
52878;SDS011;38747;53.140;6.498;2023-03-03T03:39:11;30.00;;;4.10;;
52878;SDS011;38747;53.140;6.498;2023-03-03T03:41:37;54.03;;;3.88;;
52878;SDS011;38747;53.140;6.498;2023-03-03T03:44:02;30.35;;;3.78;;
52878;SDS011;38747;53.140;6.498;2023-03-03T03:46:28;60.70;;;4.50;;
52878;SDS011;38747;53.140;6.498;2023-03-03T03:48:54;31.55;;;4.25;;
52878;SDS011;38747;53.140;6.498;2023-03-03T03:51:19;36.23;;;4.30;;
52878;SDS011;38747;53.140;6.498;2023-03-03T03:53:45;44.63;;;4.00;;
52878;SDS011;38747;53.140;6.498;2023-03-03T03:56:11;37.30;;;4.80;;
52878;SDS011;38747;53.140;6.498;2023-03-03T03:58:36;55.17;;;4.05;;
52878;SDS011;38747;53.140;6.498;2023-03-03T04:01:05;28.47;;;4.40;;
52878;SDS011;38747;53.140;6.498;2023-03-03T04:03:32;33.08;;;3.55;;
52878;SDS011;38747;53.140;6.498;2023-03-03T04:05:58;37.67;;;4.20;;
52878;SDS011;38747;53.140;6.498;2023-03-03T04:08:23;22.80;;;3.95;;
52878;SDS011;38747;53.140;6.498;2023-03-03T04:10:49;17.73;;;3.50;;
52878;SDS011;38747;53.140;6.498;2023-03-03T04:13:15;19.63;;;3.17;;
52878;SDS011;38747;53.140;6.498;2023-03-03T04:15:40;19.23;;;3.20;;
52878;SDS011;38747;53.140;6.498;2023-03-03T04:18:06;11.40;;;2.90;;
52878;SDS011;38747;53.140;6.498;2023-03-03T04:20:32;8.88;;;2.80;;
52878;SDS011;38747;53.140;6.498;2023-03-03T04:22:58;9.93;;;3.38;;
52878;SDS011;38747;53.140;6.498;2023-03-03T04:25:23;15.03;;;3.60;;
52878;SDS011;38747;53.140;6.498;2023-03-03T04:27:49;20.20;;;3.40;;
52878;SDS011;38747;53.140;6.498;2023-03-03T04:30:16;14.63;;;3.43;;
52878;SDS011;38747;53.140;6.498;2023-03-03T04:32:42;9.27;;;3.20;;
52878;SDS011;38747;53.140;6.498;2023-03-03T04:35:08;7.63;;;3.00;;
52878;SDS011;38747;53.140;6.498;2023-03-03T04:37:35;7.63;;;3.27;;
52878;SDS011;38747;53.140;6.498;2023-03-03T04:40:06;7.82;;;3.53;;
52878;SDS011;38747;53.140;6.498;2023-03-03T04:42:33;7.32;;;2.97;;
52878;SDS011;38747;53.140;6.498;2023-03-03T04:44:59;7.88;;;3.47;;
52878;SDS011;38747;53.140;6.498;2023-03-03T04:47:25;8.10;;;3.50;;
52878;SDS011;38747;53.140;6.498;2023-03-03T04:49:50;8.55;;;3.40;;
52878;SDS011;38747;53.140;6.498;2023-03-03T04:52:16;7.07;;;3.10;;
52878;SDS011;38747;53.140;6.498;2023-03-03T04:54:41;7.22;;;3.30;;
52878;SDS011;38747;53.140;6.498;2023-03-03T04:57:07;7.23;;;3.23;;
52878;SDS011;38747;53.140;6.498;2023-03-03T04:59:33;6.53;;;3.03;;
52878;SDS011;38747;53.140;6.498;2023-03-03T05:02:00;8.93;;;3.42;;
52878;SDS011;38747;53.140;6.498;2023-03-03T05:04:25;8.33;;;2.97;;
52878;SDS011;38747;53.140;6.498;2023-03-03T05:06:51;6.93;;;3.00;;
52878;SDS011;38747;53.140;6.498;2023-03-03T05:09:16;7.82;;;3.60;;
52878;SDS011;38747;53.140;6.498;2023-03-03T05:11:42;7.83;;;3.33;;
52878;SDS011;38747;53.140;6.498;2023-03-03T05:14:07;7.30;;;3.30;;
52878;SDS011;38747;53.140;6.498;2023-03-03T05:16:33;8.07;;;3.57;;
52878;SDS011;38747;53.140;6.498;2023-03-03T05:18:59;8.03;;;3.43;;
52878;SDS011;38747;53.140;6.498;2023-03-03T05:21:24;7.55;;;3.33;;
52878;SDS011;38747;53.140;6.498;2023-03-03T05:23:50;8.27;;;3.70;;
52878;SDS011;38747;53.140;6.498;2023-03-03T05:26:16;7.60;;;3.30;;
52878;SDS011;38747;53.140;6.498;2023-03-03T05:28:42;7.85;;;3.50;;
52878;SDS011;38747;53.140;6.498;2023-03-03T05:31:07;8.23;;;3.00;;
52878;SDS011;38747;53.140;6.498;2023-03-03T05:33:33;7.90;;;3.30;;
52878;SDS011;38747;53.140;6.498;2023-03-03T05:35:59;7.15;;;3.20;;
52878;SDS011;38747;53.140;6.498;2023-03-03T05:38:24;7.17;;;3.20;;
52878;SDS011;38747;53.140;6.498;2023-03-03T05:40:50;7.30;;;3.33;;
52878;SDS011;38747;53.140;6.498;2023-03-03T05:43:15;6.87;;;3.00;;
52878;SDS011;38747;53.140;6.498;2023-03-03T05:45:41;8.00;;;3.05;;
52878;SDS011;38747;53.140;6.498;2023-03-03T05:48:07;6.93;;;3.23;;
52878;SDS011;38747;53.140;6.498;2023-03-03T05:50:34;8.93;;;3.20;;
52878;SDS011;38747;53.140;6.498;2023-03-03T05:53:00;7.22;;;3.30;;
52878;SDS011;38747;53.140;6.498;2023-03-03T05:55:26;7.63;;;3.67;;
52878;SDS011;38747;53.140;6.498;2023-03-03T05:57:52;7.78;;;3.25;;
52878;SDS011;38747;53.140;6.498;2023-03-03T06:00:18;6.93;;;3.00;;
52878;SDS011;38747;53.140;6.498;2023-03-03T06:02:44;7.32;;;3.30;;
52878;SDS011;38747;53.140;6.498;2023-03-03T06:05:10;7.78;;;3.22;;
52878;SDS011;38747;53.140;6.498;2023-03-03T06:07:35;7.50;;;3.33;;
52878;SDS011;38747;53.140;6.498;2023-03-03T06:10:01;6.80;;;2.97;;
52878;SDS011;38747;53.140;6.498;2023-03-03T06:12:28;7.65;;;3.58;;
52878;SDS011;38747;53.140;6.498;2023-03-03T06:14:53;8.53;;;3.23;;
52878;SDS011;38747;53.140;6.498;2023-03-03T06:17:19;7.20;;;3.17;;
52878;SDS011;38747;53.140;6.498;2023-03-03T06:19:45;6.73;;;2.90;;
52878;SDS011;38747;53.140;6.498;2023-03-03T06:22:12;7.75;;;3.40;;
52878;SDS011;38747;53.140;6.498;2023-03-03T06:24:38;7.13;;;3.00;;
52878;SDS011;38747;53.140;6.498;2023-03-03T06:27:03;7.30;;;3.10;;
52878;SDS011;38747;53.140;6.498;2023-03-03T06:29:29;7.32;;;3.42;;
52878;SDS011;38747;53.140;6.498;2023-03-03T06:31:55;9.37;;;3.50;;
52878;SDS011;38747;53.140;6.498;2023-03-03T06:34:20;7.43;;;3.53;;
52878;SDS011;38747;53.140;6.498;2023-03-03T06:36:46;8.00;;;3.47;;
52878;SDS011;38747;53.140;6.498;2023-03-03T06:39:11;9.27;;;4.10;;
52878;SDS011;38747;53.140;6.498;2023-03-03T06:41:37;9.55;;;4.18;;
52878;SDS011;38747;53.140;6.498;2023-03-03T06:44:03;9.53;;;4.40;;
52878;SDS011;38747;53.140;6.498;2023-03-03T06:46:29;8.43;;;3.90;;
52878;SDS011;38747;53.140;6.498;2023-03-03T06:48:55;8.70;;;3.72;;
52878;SDS011;38747;53.140;6.498;2023-03-03T06:51:24;9.63;;;3.70;;
52878;SDS011;38747;53.140;6.498;2023-03-03T06:53:56;8.73;;;3.95;;
52878;SDS011;38747;53.140;6.498;2023-03-03T06:56:24;10.02;;;4.30;;
52878;SDS011;38747;53.140;6.498;2023-03-03T06:58:57;9.25;;;4.07;;
52878;SDS011;38747;53.140;6.498;2023-03-03T07:01:24;9.00;;;3.80;;
52878;SDS011;38747;53.140;6.498;2023-03-03T07:03:51;8.52;;;4.22;;
52878;SDS011;38747;53.140;6.498;2023-03-03T07:06:21;8.97;;;4.20;;
52878;SDS011;38747;53.140;6.498;2023-03-03T07:08:49;8.23;;;3.90;;
52878;SDS011;38747;53.140;6.498;2023-03-03T07:11:16;9.30;;;4.60;;
52878;SDS011;38747;53.140;6.498;2023-03-03T07:13:48;8.45;;;4.00;;
52878;SDS011;38747;53.140;6.498;2023-03-03T07:16:16;9.13;;;4.28;;
52878;SDS011;38747;53.140;6.498;2023-03-03T07:18:47;8.70;;;4.15;;
52878;SDS011;38747;53.140;6.498;2023-03-03T07:21:17;9.23;;;4.40;;
52878;SDS011;38747;53.140;6.498;2023-03-03T07:23:45;8.13;;;3.67;;
52878;SDS011;38747;53.140;6.498;2023-03-03T07:34:04;9.70;;;4.87;;
52878;SDS011;38747;53.140;6.498;2023-03-03T07:36:45;11.07;;;4.75;;
52878;SDS011;38747;53.140;6.498;2023-03-03T07:41:45;10.03;;;5.00;;
52878;SDS011;38747;53.140;6.498;2023-03-03T07:44:13;11.40;;;4.88;;
52878;SDS011;38747;53.140;6.498;2023-03-03T07:46:46;11.60;;;4.93;;
52878;SDS011;38747;53.140;6.498;2023-03-03T07:49:29;10.87;;;4.97;;
52878;SDS011;38747;53.140;6.498;2023-03-03T07:52:01;11.50;;;5.15;;
52878;SDS011;38747;53.140;6.498;2023-03-03T07:54:44;10.50;;;5.00;;
52878;SDS011;38747;53.140;6.498;2023-03-03T07:57:24;11.20;;;5.35;;
52878;SDS011;38747;53.140;6.498;2023-03-03T07:59:59;9.40;;;4.95;;
52878;SDS011;38747;53.140;6.498;2023-03-03T08:02:47;10.47;;;5.13;;
52878;SDS011;38747;53.140;6.498;2023-03-03T08:05:34;10.50;;;4.80;;
52878;SDS011;38747;53.140;6.498;2023-03-03T08:08:17;10.80;;;5.00;;
52878;SDS011;38747;53.140;6.498;2023-03-03T08:11:00;9.85;;;4.75;;
52878;SDS011;38747;53.140;6.498;2023-03-03T08:13:39;11.27;;;5.00;;
52878;SDS011;38747;53.140;6.498;2023-03-03T08:18:45;11.48;;;5.18;;
52878;SDS011;38747;53.140;6.498;2023-03-03T08:21:14;10.25;;;5.18;;
52878;SDS011;38747;53.140;6.498;2023-03-03T08:23:42;10.43;;;5.28;;
52878;SDS011;38747;53.140;6.498;2023-03-03T08:26:08;11.52;;;5.65;;
52878;SDS011;38747;53.140;6.498;2023-03-03T08:28:36;12.73;;;5.13;;
52878;SDS011;38747;53.140;6.498;2023-03-03T08:31:02;11.63;;;5.38;;
52878;SDS011;38747;53.140;6.498;2023-03-03T08:33:28;10.70;;;5.25;;
52878;SDS011;38747;53.140;6.498;2023-03-03T08:35:54;11.40;;;5.43;;
52878;SDS011;38747;53.140;6.498;2023-03-03T08:38:20;12.95;;;5.72;;
52878;SDS011;38747;53.140;6.498;2023-03-03T08:40:47;11.77;;;5.20;;
52878;SDS011;38747;53.140;6.498;2023-03-03T08:43:13;11.70;;;4.77;;
52878;SDS011;38747;53.140;6.498;2023-03-03T08:45:45;9.18;;;5.10;;
52878;SDS011;38747;53.140;6.498;2023-03-03T08:48:14;10.65;;;5.00;;
52878;SDS011;38747;53.140;6.498;2023-03-03T08:50:40;10.30;;;5.40;;
52878;SDS011;38747;53.140;6.498;2023-03-03T08:53:07;10.57;;;5.17;;
52878;SDS011;38747;53.140;6.498;2023-03-03T08:55:33;10.85;;;5.10;;
52878;SDS011;38747;53.140;6.498;2023-03-03T08:57:59;9.97;;;5.07;;
52878;SDS011;38747;53.140;6.498;2023-03-03T09:00:25;9.73;;;5.23;;
52878;SDS011;38747;53.140;6.498;2023-03-03T09:02:50;10.47;;;5.37;;
52878;SDS011;38747;53.140;6.498;2023-03-03T09:05:16;10.75;;;5.35;;
52878;SDS011;38747;53.140;6.498;2023-03-03T09:07:43;9.82;;;5.57;;
52878;SDS011;38747;53.140;6.498;2023-03-03T09:10:11;9.90;;;5.15;;
52878;SDS011;38747;53.140;6.498;2023-03-03T09:12:39;10.32;;;4.95;;
52878;SDS011;38747;53.140;6.498;2023-03-03T09:15:28;11.30;;;4.80;;
52878;SDS011;38747;53.140;6.498;2023-03-03T09:17:58;9.27;;;4.93;;
52878;SDS011;38747;53.140;6.498;2023-03-03T09:20:31;9.88;;;4.90;;
52878;SDS011;38747;53.140;6.498;2023-03-03T09:25:51;10.32;;;5.60;;
52878;SDS011;38747;53.140;6.498;2023-03-03T09:28:27;10.33;;;4.90;;
52878;SDS011;38747;53.140;6.498;2023-03-03T09:30:59;11.27;;;5.35;;
52878;SDS011;38747;53.140;6.498;2023-03-03T09:33:43;9.77;;;5.05;;
52878;SDS011;38747;53.140;6.498;2023-03-03T09:36:22;9.77;;;4.65;;
52878;SDS011;38747;53.140;6.498;2023-03-03T09:38:48;9.98;;;4.55;;
52878;SDS011;38747;53.140;6.498;2023-03-03T09:50:33;9.70;;;4.93;;
52878;SDS011;38747;53.140;6.498;2023-03-03T09:58:17;10.05;;;4.93;;
52878;SDS011;38747;53.140;6.498;2023-03-03T10:22:51;10.13;;;5.10;;
52878;SDS011;38747;53.140;6.498;2023-03-03T10:36:14;8.00;;;4.40;;
52878;SDS011;38747;53.140;6.498;2023-03-03T10:42:02;10.40;;;4.15;;
52878;SDS011;38747;53.140;6.498;2023-03-03T10:50:09;12.77;;;4.00;;
52878;SDS011;38747;53.140;6.498;2023-03-03T11:06:34;7.53;;;2.00;;
52878;SDS011;38747;53.140;6.498;2023-03-03T11:14:25;8.20;;;0.95;;
52878;SDS011;38747;53.140;6.498;2023-03-03T11:26:05;4.47;;;0.90;;
52878;SDS011;38747;53.140;6.498;2023-03-03T11:37:07;2.70;;;0.80;;
52878;SDS011;38747;53.140;6.498;2023-03-03T11:39:37;4.63;;;0.80;;
52878;SDS011;38747;53.140;6.498;2023-03-03T11:47:58;4.85;;;0.70;;
52878;SDS011;38747;53.140;6.498;2023-03-03T11:50:44;3.15;;;1.00;;
52878;SDS011;38747;53.140;6.498;2023-03-03T11:56:13;5.22;;;0.60;;
52878;SDS011;38747;53.140;6.498;2023-03-03T12:01:56;3.38;;;0.98;;
52878;SDS011;38747;53.140;6.498;2023-03-03T12:04:45;5.80;;;0.73;;
52878;SDS011;38747;53.140;6.498;2023-03-03T12:12:44;4.60;;;0.75;;
52878;SDS011;38747;53.140;6.498;2023-03-03T12:18:05;3.78;;;0.80;;
52878;SDS011;38747;53.140;6.498;2023-03-03T12:20:50;6.53;;;0.80;;
52878;SDS011;38747;53.140;6.498;2023-03-03T12:26:42;5.80;;;0.60;;
52878;SDS011;38747;53.140;6.498;2023-03-03T12:29:12;5.03;;;0.80;;
52878;SDS011;38747;53.140;6.498;2023-03-03T12:31:50;4.97;;;0.80;;
52878;SDS011;38747;53.140;6.498;2023-03-03T12:34:31;7.17;;;1.00;;
52878;SDS011;38747;53.140;6.498;2023-03-03T12:37:11;4.03;;;0.77;;
52878;SDS011;38747;53.140;6.498;2023-03-03T12:39:52;8.68;;;1.00;;
52878;SDS011;38747;53.140;6.498;2023-03-03T12:51:09;4.70;;;0.90;;
52878;SDS011;38747;53.140;6.498;2023-03-03T12:53:51;6.28;;;0.95;;
52878;SDS011;38747;53.140;6.498;2023-03-03T12:56:33;8.20;;;0.93;;
52878;SDS011;38747;53.140;6.498;2023-03-03T13:01:56;7.90;;;0.97;;
52878;SDS011;38747;53.140;6.498;2023-03-03T13:04:55;5.03;;;0.80;;
52878;SDS011;38747;53.140;6.498;2023-03-03T13:12:53;9.95;;;1.00;;
52878;SDS011;38747;53.140;6.498;2023-03-03T13:18:37;6.00;;;1.00;;
52878;SDS011;38747;53.140;6.498;2023-03-03T13:21:24;7.60;;;1.20;;
52878;SDS011;38747;53.140;6.498;2023-03-03T13:26:44;8.05;;;1.20;;
52878;SDS011;38747;53.140;6.498;2023-03-03T13:29:24;5.27;;;1.03;;
52878;SDS011;38747;53.140;6.498;2023-03-03T13:31:58;10.55;;;1.63;;
52878;SDS011;38747;53.140;6.498;2023-03-03T13:37:19;11.85;;;1.50;;
52878;SDS011;38747;53.140;6.498;2023-03-03T13:45:22;11.70;;;1.38;;
52878;SDS011;38747;53.140;6.498;2023-03-03T13:51:13;10.40;;;1.35;;
52878;SDS011;38747;53.140;6.498;2023-03-03T14:11:03;9.53;;;1.13;;
52878;SDS011;38747;53.140;6.498;2023-03-03T14:16:09;13.23;;;1.73;;
52878;SDS011;38747;53.140;6.498;2023-03-03T14:18:56;14.02;;;2.00;;
52878;SDS011;38747;53.140;6.498;2023-03-03T14:24:17;12.47;;;1.63;;
52878;SDS011;38747;53.140;6.498;2023-03-03T14:26:45;15.02;;;1.60;;
52878;SDS011;38747;53.140;6.498;2023-03-03T14:31:51;10.50;;;1.48;;
52878;SDS011;38747;53.140;6.498;2023-03-03T14:36:46;12.47;;;1.30;;
52878;SDS011;38747;53.140;6.498;2023-03-03T14:39:29;11.73;;;1.50;;
52878;SDS011;38747;53.140;6.498;2023-03-03T14:42:00;13.15;;;1.83;;
52878;SDS011;38747;53.140;6.498;2023-03-03T14:44:30;11.03;;;1.37;;
52878;SDS011;38747;53.140;6.498;2023-03-03T14:49:31;15.02;;;1.52;;
52878;SDS011;38747;53.140;6.498;2023-03-03T14:52:02;11.23;;;1.88;;
52878;SDS011;38747;53.140;6.498;2023-03-03T14:54:37;12.07;;;1.95;;
52878;SDS011;38747;53.140;6.498;2023-03-03T14:59:37;12.10;;;1.83;;
52878;SDS011;38747;53.140;6.498;2023-03-03T15:04:45;13.27;;;1.50;;
52878;SDS011;38747;53.140;6.498;2023-03-03T15:10:00;12.13;;;1.57;;
52878;SDS011;38747;53.140;6.498;2023-03-03T15:12:34;18.45;;;2.28;;
52878;SDS011;38747;53.140;6.498;2023-03-03T15:17:40;13.77;;;2.08;;
52878;SDS011;38747;53.140;6.498;2023-03-03T15:20:36;12.85;;;1.55;;
52878;SDS011;38747;53.140;6.498;2023-03-03T15:55:31;15.80;;;1.73;;
52878;SDS011;38747;53.140;6.498;2023-03-03T16:03:34;15.03;;;1.90;;
52878;SDS011;38747;53.140;6.498;2023-03-03T16:06:05;14.02;;;1.60;;
52878;SDS011;38747;53.140;6.498;2023-03-03T16:08:44;13.93;;;1.80;;
52878;SDS011;38747;53.140;6.498;2023-03-03T16:19:31;15.50;;;2.08;;
52878;SDS011;38747;53.140;6.498;2023-03-03T16:22:31;16.85;;;2.40;;
52878;SDS011;38747;53.140;6.498;2023-03-03T16:35:41;16.33;;;2.00;;
52878;SDS011;38747;53.140;6.498;2023-03-03T16:40:54;10.85;;;1.70;;
52878;SDS011;38747;53.140;6.498;2023-03-03T16:46:06;13.88;;;1.90;;
52878;SDS011;38747;53.140;6.498;2023-03-03T16:48:49;14.67;;;1.70;;
52878;SDS011;38747;53.140;6.498;2023-03-03T16:54:29;20.45;;;2.20;;
52878;SDS011;38747;53.140;6.498;2023-03-03T16:59:51;21.08;;;2.33;;
52878;SDS011;38747;53.140;6.498;2023-03-03T17:02:31;18.20;;;2.83;;
52878;SDS011;38747;53.140;6.498;2023-03-03T17:05:00;18.05;;;2.70;;
52878;SDS011;38747;53.140;6.498;2023-03-03T17:08:00;19.17;;;1.75;;
52878;SDS011;38747;53.140;6.498;2023-03-03T17:10:32;23.88;;;2.97;;
52878;SDS011;38747;53.140;6.498;2023-03-03T17:16:04;19.60;;;2.30;;
52878;SDS011;38747;53.140;6.498;2023-03-03T17:32:15;17.98;;;1.92;;
52878;SDS011;38747;53.140;6.498;2023-03-03T17:37:55;15.52;;;2.20;;
52878;SDS011;38747;53.140;6.498;2023-03-03T17:40:37;23.13;;;2.58;;
52878;SDS011;38747;53.140;6.498;2023-03-03T17:43:24;14.80;;;2.77;;
52878;SDS011;38747;53.140;6.498;2023-03-03T17:45:58;19.05;;;2.83;;
52878;SDS011;38747;53.140;6.498;2023-03-03T17:51:31;16.15;;;2.10;;
52878;SDS011;38747;53.140;6.498;2023-03-03T17:55:09;14.13;;;2.20;;
52878;SDS011;38747;53.140;6.498;2023-03-03T18:00:11;19.15;;;2.20;;
52878;SDS011;38747;53.140;6.498;2023-03-03T18:05:27;12.65;;;2.03;;
52878;SDS011;38747;53.140;6.498;2023-03-03T18:16:19;21.65;;;2.88;;
52878;SDS011;38747;53.140;6.498;2023-03-03T18:22:18;15.10;;;2.60;;
52878;SDS011;38747;53.140;6.498;2023-03-03T18:27:35;17.73;;;3.10;;
52878;SDS011;38747;53.140;6.498;2023-03-03T18:30:14;21.58;;;2.80;;
52878;SDS011;38747;53.140;6.498;2023-03-03T18:37:49;14.13;;;2.40;;
52878;SDS011;38747;53.140;6.498;2023-03-03T18:42:50;22.27;;;2.63;;
52878;SDS011;38747;53.140;6.498;2023-03-03T18:50:34;21.55;;;2.40;;
52878;SDS011;38747;53.140;6.498;2023-03-03T18:55:45;16.83;;;2.30;;
52878;SDS011;38747;53.140;6.498;2023-03-03T19:00:43;18.80;;;2.63;;
52878;SDS011;38747;53.140;6.498;2023-03-03T19:03:37;18.63;;;2.78;;
52878;SDS011;38747;53.140;6.498;2023-03-03T19:07:06;20.53;;;2.73;;
52878;SDS011;38747;53.140;6.498;2023-03-03T19:09:17;14.90;;;1.80;;
52878;SDS011;38747;53.140;6.498;2023-03-03T19:11:48;14.40;;;2.35;;
52878;SDS011;38747;53.140;6.498;2023-03-03T19:16:50;18.63;;;2.72;;
52878;SDS011;38747;53.140;6.498;2023-03-03T19:19:39;17.40;;;2.97;;
52878;SDS011;38747;53.140;6.498;2023-03-03T19:22:24;17.13;;;2.60;;
52878;SDS011;38747;53.140;6.498;2023-03-03T19:33:40;12.33;;;2.00;;
52878;SDS011;38747;53.140;6.498;2023-03-03T19:39:41;18.67;;;2.20;;
52878;SDS011;38747;53.140;6.498;2023-03-03T19:45:24;20.10;;;3.45;;
52878;SDS011;38747;53.140;6.498;2023-03-03T19:53:57;13.80;;;1.90;;
52878;SDS011;38747;53.140;6.498;2023-03-03T19:56:49;16.50;;;1.80;;
52878;SDS011;38747;53.140;6.498;2023-03-03T19:59:39;12.50;;;1.73;;
52878;SDS011;38747;53.140;6.498;2023-03-03T20:08:04;19.10;;;2.25;;
52878;SDS011;38747;53.140;6.498;2023-03-03T20:27:46;16.40;;;1.92;;
52878;SDS011;38747;53.140;6.498;2023-03-03T20:31:05;17.33;;;2.00;;
52878;SDS011;38747;53.140;6.498;2023-03-03T20:39:10;14.00;;;1.85;;
52878;SDS011;38747;53.140;6.498;2023-03-03T20:41:53;12.73;;;1.90;;
52878;SDS011;38747;53.140;6.498;2023-03-03T20:44:36;13.80;;;1.67;;
52878;SDS011;38747;53.140;6.498;2023-03-03T20:50:10;10.93;;;1.92;;
52878;SDS011;38747;53.140;6.498;2023-03-03T20:53:17;10.82;;;1.30;;
52878;SDS011;38747;53.140;6.498;2023-03-03T20:56:13;17.50;;;2.22;;
52878;SDS011;38747;53.140;6.498;2023-03-03T21:04:15;12.77;;;1.60;;
52878;SDS011;38747;53.140;6.498;2023-03-03T21:06:51;14.55;;;1.58;;
52878;SDS011;38747;53.140;6.498;2023-03-03T21:09:50;11.27;;;1.90;;
52878;SDS011;38747;53.140;6.498;2023-03-03T21:12:30;13.30;;;1.50;;
52878;SDS011;38747;53.140;6.498;2023-03-03T21:15:30;16.58;;;2.17;;
52878;SDS011;38747;53.140;6.498;2023-03-03T21:17:55;11.85;;;1.88;;
52878;SDS011;38747;53.140;6.498;2023-03-03T21:22:59;18.85;;;2.10;;
52878;SDS011;38747;53.140;6.498;2023-03-03T21:25:47;13.90;;;1.83;;
52878;SDS011;38747;53.140;6.498;2023-03-03T21:28:23;11.63;;;1.58;;
52878;SDS011;38747;53.140;6.498;2023-03-03T21:30:59;10.90;;;1.40;;
52878;SDS011;38747;53.140;6.498;2023-03-03T21:36:13;10.60;;;1.55;;
52878;SDS011;38747;53.140;6.498;2023-03-03T21:38:41;11.50;;;1.40;;
52878;SDS011;38747;53.140;6.498;2023-03-03T21:41:09;9.57;;;1.85;;
52878;SDS011;38747;53.140;6.498;2023-03-03T21:43:36;12.13;;;1.70;;
52878;SDS011;38747;53.140;6.498;2023-03-03T21:46:16;13.65;;;1.80;;
52878;SDS011;38747;53.140;6.498;2023-03-03T21:48:43;15.03;;;1.40;;